Time;durP1;ratioP1;P1;durP2;ratioP2;P2;SDS_P1;SDS_P2;PMS_P1;PMS_P2;Temp;Humidity;BMP_temperature;BMP_pressure;BME280_temperature;BME280_humidity;BME280_pressure;Samples;Min_cycle;Max_cycle;Signal;HPM_P1;HPM_P2
2023/07/01 00:02:25;;;;;;;12.90;4.90;;;20.00;98.00;;;;;;4995307;28;20452;-67
2023/07/01 00:04:52;;;;;;;10.43;4.77;;;19.90;98.00;;;;;;4995276;28;20624;-67
2023/07/01 00:07:19;;;;;;;8.23;3.90;;;19.90;98.00;;;;;;4995629;28;20472;-67
2023/07/01 00:09:46;;;;;;;6.80;3.90;;;20.00;98.00;;;;;;4994021;28;20467;-67
2023/07/01 00:12:13;;;;;;;9.80;4.10;;;19.90;98.00;;;;;;4995147;28;20870;-67
2023/07/01 00:14:40;;;;;;;7.10;4.10;;;19.90;98.00;;;;;;4994905;28;20457;-67
2023/07/01 00:17:09;;;;;;;7.30;3.87;;;19.90;98.00;;;;;;4994862;28;20476;-67
2023/07/01 00:19:38;;;;;;;6.50;3.80;;;19.80;98.00;;;;;;4994954;28;20452;-67
2023/07/01 00:22:06;;;;;;;9.73;3.80;;;19.80;98.00;;;;;;4994769;28;20457;-67
2023/07/01 00:24:33;;;;;;;6.20;3.40;;;19.80;98.00;;;;;;4994648;28;20452;-67
2023/07/01 00:27:00;;;;;;;7.83;3.40;;;19.70;98.00;;;;;;4994649;28;20467;-67
2023/07/01 00:29:27;;;;;;;6.37;3.80;;;19.60;98.00;;;;;;4993692;28;20459;-67
2023/07/01 00:31:54;;;;;;;9.17;4.23;;;19.70;98.00;;;;;;4994850;28;20464;-67
2023/07/01 00:34:21;;;;;;;8.87;3.83;;;19.80;98.00;;;;;;4994722;28;20514;-67
2023/07/01 00:36:50;;;;;;;10.23;3.97;;;19.70;98.00;;;;;;4994406;28;20487;-67
2023/07/01 00:39:17;;;;;;;8.67;4.10;;;19.40;98.00;;;;;;4994761;28;20895;-67
2023/07/01 00:41:52;;;;;;;9.67;4.60;;;19.30;98.00;;;;;;4993488;28;20448;-67
2023/07/01 00:44:19;;;;;;;8.00;4.43;;;19.10;98.00;;;;;;4994506;28;20468;-67
2023/07/01 00:46:46;;;;;;;7.03;3.80;;;19.00;98.00;;;;;;4994527;28;20464;-67
2023/07/01 00:49:13;;;;;;;5.70;3.30;;;19.00;98.00;;;;;;4994314;28;21017;-67
2023/07/01 00:51:41;;;;;;;7.17;3.63;;;18.90;98.00;;;;;;4994514;28;20853;-67
2023/07/01 00:54:09;;;;;;;8.30;3.30;;;18.80;98.00;;;;;;4994473;28;20463;-67
2023/07/01 00:56:36;;;;;;;5.67;2.87;;;18.70;98.00;;;;;;4994173;28;20600;-67
2023/07/01 00:59:04;;;;;;;7.73;3.63;;;18.60;98.00;;;;;;4994163;28;20467;-67
2023/07/01 01:01:37;;;;;;;6.93;2.70;;;18.50;98.00;;;;;;4993246;28;20515;-67
2023/07/01 01:04:19;;;;;;;5.10;3.30;;;18.50;98.00;;;;;;4994267;28;20453;-67
2023/07/01 01:06:53;;;;;;;6.30;2.93;;;18.30;98.00;;;;;;4993347;28;20453;-67
2023/07/01 01:09:27;;;;;;;6.37;3.00;;;18.10;98.00;;;;;;4993879;28;20973;-67
2023/07/01 01:11:57;;;;;;;12.50;2.90;;;18.00;98.00;;;;;;4994033;28;20946;-67
2023/07/01 01:14:25;;;;;;;8.23;3.73;;;18.00;98.00;;;;;;4992822;28;20816;-67
2023/07/01 01:16:53;;;;;;;7.30;3.10;;;17.80;98.00;;;;;;4992568;28;20491;-67
2023/07/01 01:19:28;;;;;;;7.57;3.87;;;17.70;98.00;;;;;;4993818;28;20468;-67
2023/07/01 01:22:10;;;;;;;6.83;3.20;;;17.70;98.00;;;;;;4993764;28;20541;-67
2023/07/01 01:24:43;;;;;;;7.10;3.30;;;17.80;98.00;;;;;;4993540;28;20452;-67
2023/07/01 01:27:14;;;;;;;5.80;3.17;;;17.90;98.00;;;;;;4993571;28;20747;-67
2023/07/01 01:29:43;;;;;;;6.43;2.70;;;17.90;98.00;;;;;;4993465;28;20954;-67
2023/07/01 01:32:11;;;;;;;6.00;3.03;;;17.90;98.00;;;;;;4993656;28;20452;-67
2023/07/01 01:34:38;;;;;;;10.10;3.10;;;17.70;98.00;;;;;;4993606;28;20461;-67
2023/07/01 01:37:11;;;;;;;3.60;2.77;;;17.60;98.00;;;;;;4993302;28;20858;-67
2023/07/01 01:39:45;;;;;;;4.90;2.37;;;17.40;98.00;;;;;;4993342;28;20460;-67
2023/07/01 01:42:17;;;;;;;4.47;2.93;;;17.40;98.00;;;;;;4993294;28;20456;-67
2023/07/01 01:44:51;;;;;;;7.93;2.50;;;17.30;98.00;;;;;;4993302;28;20947;-67
2023/07/01 01:47:21;;;;;;;4.20;2.40;;;17.40;98.00;;;;;;4993391;28;20506;-67
2023/07/01 01:49:53;;;;;;;6.23;2.67;;;17.40;98.00;;;;;;4993216;28;20456;-67
2023/07/01 01:52:22;;;;;;;5.80;3.10;;;17.30;98.00;;;;;;4993481;28;20461;-67
2023/07/01 01:54:51;;;;;;;4.07;2.77;;;17.10;98.00;;;;;;4993442;28;20503;-67
2023/07/01 01:57:18;;;;;;;4.97;2.87;;;16.90;98.00;;;;;;4992928;28;20487;-67
2023/07/01 01:59:47;;;;;;;6.60;3.00;;;17.00;98.00;;;;;;4992991;28;20534;-67
2023/07/01 02:02:14;;;;;;;3.83;2.77;;;17.10;98.00;;;;;;4993078;28;20465;-67
2023/07/01 02:04:42;;;;;;;5.23;3.10;;;17.00;98.00;;;;;;4993004;28;20461;-67
2023/07/01 02:07:09;;;;;;;15.00;3.33;;;17.00;98.00;;;;;;4992972;28;20463;-67
2023/07/01 02:09:36;;;;;;;6.50;2.93;;;16.80;98.00;;;;;;4992985;28;20511;-67
2023/07/01 02:12:04;;;;;;;4.83;2.80;;;16.90;98.00;;;;;;4992730;28;20448;-67
2023/07/01 02:14:32;;;;;;;5.03;3.10;;;16.70;98.00;;;;;;4992639;28;20540;-67
2023/07/01 02:17:00;;;;;;;4.70;2.83;;;16.70;98.00;;;;;;4992553;28;20480;-67
2023/07/01 02:19:27;;;;;;;5.10;2.70;;;16.70;98.00;;;;;;4992516;28;20858;-67
2023/07/01 02:21:54;;;;;;;4.60;2.87;;;16.80;98.00;;;;;;4992632;28;20878;-67
2023/07/01 02:24:21;;;;;;;8.10;3.23;;;16.90;98.00;;;;;;4992569;28;20448;-67
2023/07/01 02:26:50;;;;;;;5.40;2.77;;;16.90;98.00;;;;;;4992494;28;20465;-67
2023/07/01 02:29:17;;;;;;;6.13;3.10;;;17.00;98.00;;;;;;4990969;28;20460;-67
2023/07/01 02:31:44;;;;;;;4.80;3.00;;;16.90;98.00;;;;;;4992460;28;20455;-67
2023/07/01 02:34:15;;;;;;;6.00;3.00;;;16.90;98.00;;;;;;4992403;28;20511;-67
2023/07/01 02:36:43;;;;;;;4.53;2.97;;;16.90;98.00;;;;;;4992531;28;20495;-67
2023/07/01 02:39:10;;;;;;;6.40;2.97;;;16.70;98.00;;;;;;4992282;28;20867;-67
2023/07/01 02:41:37;;;;;;;5.20;2.80;;;16.60;98.00;;;;;;4992372;28;20460;-67
2023/07/01 02:44:04;;;;;;;5.10;3.00;;;16.40;98.00;;;;;;4992339;28;20511;-67
2023/07/01 02:46:31;;;;;;;4.30;2.70;;;16.40;98.00;;;;;;4992143;28;20464;-67
2023/07/01 02:48:58;;;;;;;7.03;3.17;;;16.40;98.00;;;;;;4992558;28;20464;-67
2023/07/01 02:51:28;;;;;;;5.63;2.83;;;16.40;98.00;;;;;;4992185;28;20970;-67
2023/07/01 02:53:55;;;;;;;4.47;2.43;;;16.30;98.00;;;;;;4992183;28;20463;-67
2023/07/01 02:56:22;;;;;;;3.83;2.80;;;16.20;98.00;;;;;;4992027;28;20484;-67
2023/07/01 02:58:49;;;;;;;5.03;2.73;;;16.10;98.00;;;;;;4992123;28;20479;-67
2023/07/01 03:01:16;;;;;;;5.67;2.90;;;16.20;98.00;;;;;;4991827;28;20473;-67
2023/07/01 03:03:44;;;;;;;6.17;3.37;;;16.20;98.00;;;;;;4992045;28;20464;-67
2023/07/01 03:06:12;;;;;;;5.27;3.03;;;16.10;98.00;;;;;;4990527;28;20468;-67
2023/07/01 03:08:43;;;;;;;5.73;3.43;;;16.10;98.00;;;;;;4990626;28;20455;-67
2023/07/01 03:11:10;;;;;;;8.20;3.50;;;16.10;98.00;;;;;;4992014;28;20539;-67
2023/07/01 03:13:40;;;;;;;4.37;3.13;;;16.00;98.00;;;;;;4991876;28;20499;-67
2023/07/01 03:16:07;;;;;;;4.93;2.70;;;16.10;98.00;;;;;;4991365;28;20484;-67
2023/07/01 03:18:34;;;;;;;4.10;2.73;;;16.10;98.00;;;;;;4991932;28;20448;-67
2023/07/01 03:21:02;;;;;;;5.50;3.00;;;16.30;98.00;;;;;;4991661;28;20822;-67
2023/07/01 03:23:29;;;;;;;3.73;2.37;;;16.20;98.00;;;;;;4991894;28;20456;-67
2023/07/01 03:25:58;;;;;;;5.77;3.00;;;16.20;98.00;;;;;;4991963;28;20543;-67
2023/07/01 03:28:25;;;;;;;6.00;2.57;;;16.10;98.00;;;;;;4991788;28;20467;-67
2023/07/01 03:30:52;;;;;;;5.20;3.00;;;16.10;98.00;;;;;;4993059;28;20460;-67
2023/07/01 03:33:19;;;;;;;6.03;2.80;;;16.10;98.00;;;;;;4995741;28;20514;-67
2023/07/01 03:35:46;;;;;;;5.10;3.07;;;16.10;98.00;;;;;;4995783;28;20452;-67
2023/07/01 03:38:13;;;;;;;3.87;2.80;;;16.00;98.00;;;;;;4995691;28;20502;-67
2023/07/01 03:40:40;;;;;;;4.47;2.87;;;16.10;98.00;;;;;;4995828;28;20555;-67
2023/07/01 03:43:09;;;;;;;4.50;2.87;;;16.10;98.00;;;;;;4995808;28;20460;-67
2023/07/01 03:45:36;;;;;;;7.47;3.10;;;16.30;98.00;;;;;;4995776;28;20463;-67
2023/07/01 03:48:05;;;;;;;4.77;2.97;;;16.30;98.00;;;;;;4995668;28;20543;-67
2023/07/01 03:50:32;;;;;;;11.23;3.10;;;16.10;98.00;;;;;;4995362;28;20468;-67
2023/07/01 03:53:08;;;;;;;8.70;2.97;;;16.10;98.00;;;;;;4995475;28;20465;-67
2023/07/01 03:55:35;;;;;;;5.03;3.03;;;16.10;98.00;;;;;;4994356;28;20483;-67
2023/07/01 03:58:04;;;;;;;4.77;2.90;;;16.20;98.00;;;;;;4995190;28;20483;-67
2023/07/01 04:00:32;;;;;;;6.80;3.27;;;16.20;98.00;;;;;;4995150;28;20464;-67
2023/07/01 04:03:05;;;;;;;5.10;2.90;;;16.30;98.00;;;;;;4995181;28;20870;-67
2023/07/01 04:05:34;;;;;;;7.07;3.30;;;16.40;98.00;;;;;;4995152;28;20963;-67
2023/07/01 04:08:01;;;;;;;6.20;3.53;;;16.30;98.00;;;;;;4995122;28;20456;-67
2023/07/01 04:10:29;;;;;;;4.30;2.70;;;16.10;98.00;;;;;;4995093;28;20456;-67
2023/07/01 04:12:58;;;;;;;9.83;3.50;;;16.20;98.00;;;;;;4995117;28;20460;-67
2023/07/01 04:15:25;;;;;;;3.97;2.50;;;16.30;98.00;;;;;;4994911;28;20460;-67
2023/07/01 04:17:54;;;;;;;4.07;2.70;;;16.40;98.00;;;;;;4994921;28;20483;-67
2023/07/01 04:20:21;;;;;;;4.83;3.00;;;16.50;98.00;;;;;;4994788;28;20480;-67
2023/07/01 04:22:49;;;;;;;8.43;2.90;;;16.50;98.00;;;;;;4994888;28;20460;-67
2023/07/01 04:25:16;;;;;;;6.10;2.73;;;16.60;98.00;;;;;;4995120;28;20452;-67
2023/07/01 04:27:43;;;;;;;6.13;3.00;;;16.70;98.00;;;;;;4994928;28;20464;-67
2023/07/01 04:30:13;;;;;;;4.73;3.13;;;16.70;98.00;;;;;;4994894;28;20452;-67
2023/07/01 04:32:43;;;;;;;6.17;2.80;;;16.70;98.00;;;;;;4994824;28;20495;-67
2023/07/01 04:35:11;;;;;;;5.47;3.53;;;16.60;98.00;;;;;;4993517;28;20460;-67
2023/07/01 04:37:38;;;;;;;4.27;2.73;;;16.60;98.00;;;;;;4994846;28;20484;-67
2023/07/01 04:40:07;;;;;;;6.40;3.20;;;16.50;98.00;;;;;;4993377;28;20957;-67
2023/07/01 04:42:34;;;;;;;6.97;3.00;;;16.50;98.00;;;;;;4994512;28;20448;-67
2023/07/01 04:45:01;;;;;;;4.20;2.60;;;16.40;98.00;;;;;;4994416;28;20459;-67
2023/07/01 04:47:30;;;;;;;5.83;3.20;;;16.40;98.00;;;;;;4994424;28;20981;-67
2023/07/01 04:49:57;;;;;;;4.67;2.90;;;16.40;98.00;;;;;;4994227;28;20460;-67
2023/07/01 04:52:26;;;;;;;5.40;2.87;;;16.40;98.00;;;;;;4994124;28;20449;-67
2023/07/01 04:54:54;;;;;;;6.03;3.00;;;16.50;98.00;;;;;;4994329;28;20460;-67
2023/07/01 04:57:21;;;;;;;5.57;3.00;;;16.50;98.00;;;;;;4993907;28;20488;-67
2023/07/01 04:59:48;;;;;;;3.97;2.57;;;16.50;98.00;;;;;;4994036;28;20476;-67
2023/07/01 05:02:15;;;;;;;5.10;2.60;;;16.60;98.00;;;;;;4994361;28;20460;-67
2023/07/01 05:04:42;;;;;;;3.43;2.40;;;16.70;98.00;;;;;;4994104;28;20457;-67
2023/07/01 05:07:12;;;;;;;3.33;2.40;;;16.70;98.00;;;;;;4994028;28;20468;-67
2023/07/01 05:09:41;;;;;;;4.17;2.57;;;16.80;98.00;;;;;;4993915;28;20469;-67
2023/07/01 05:12:08;;;;;;;3.57;2.37;;;16.90;98.00;;;;;;4993751;28;20507;-67
2023/07/01 05:14:35;;;;;;;4.80;2.67;;;17.00;98.00;;;;;;4992825;28;20456;-67
2023/07/01 05:17:03;;;;;;;3.60;2.60;;;17.00;98.00;;;;;;4993755;28;20677;-67
2023/07/01 05:19:30;;;;;;;3.03;2.13;;;17.10;98.00;;;;;;4993947;28;20452;-67
2023/07/01 05:21:57;;;;;;;3.40;2.40;;;17.20;98.00;;;;;;4993960;28;20475;-67
2023/07/01 05:24:24;;;;;;;3.30;2.20;;;17.20;98.00;;;;;;4993863;28;20460;-67
2023/07/01 05:26:53;;;;;;;4.23;2.63;;;17.20;98.00;;;;;;4993730;28;20951;-67
2023/07/01 05:29:21;;;;;;;3.83;2.57;;;17.30;98.00;;;;;;4993827;28;21017;-67
2023/07/01 05:31:49;;;;;;;7.13;3.10;;;17.40;98.00;;;;;;4993953;28;20452;-67
2023/07/01 05:34:16;;;;;;;5.83;2.70;;;17.50;98.00;;;;;;4993774;28;20543;-67
2023/07/01 05:36:44;;;;;;;6.73;2.63;;;17.70;98.00;;;;;;4993229;28;20491;-67
2023/07/01 05:39:11;;;;;;;4.73;2.67;;;17.80;98.00;;;;;;4993691;28;20872;-67
2023/07/01 05:41:38;;;;;;;4.80;2.73;;;17.80;98.00;;;;;;4993433;28;20456;-67
2023/07/01 05:44:07;;;;;;;5.13;2.93;;;17.90;98.00;;;;;;4993662;28;20465;-67
2023/07/01 05:46:34;;;;;;;15.13;3.47;;;18.00;98.00;;;;;;4993340;28;20832;-67
2023/07/01 05:49:01;;;;;;;4.67;2.80;;;18.00;98.00;;;;;;4993194;28;20558;-67
2023/07/01 05:51:30;;;;;;;4.00;2.83;;;18.20;98.00;;;;;;4993115;28;20457;-63
2023/07/01 05:53:57;;;;;;;4.33;2.73;;;18.20;98.00;;;;;;4992629;28;20452;-63
2023/07/01 05:56:25;;;;;;;5.20;2.63;;;18.40;98.00;;;;;;4993021;28;20452;-63
2023/07/01 05:58:52;;;;;;;6.63;2.30;;;18.50;98.00;;;;;;4993200;28;20845;-63
2023/07/01 06:01:21;;;;;;;3.60;2.37;;;18.60;98.00;;;;;;4992879;28;20473;-63
2023/07/01 06:03:48;;;;;;;2.97;2.23;;;18.60;98.00;;;;;;4992998;28;20871;-63
2023/07/01 06:06:15;;;;;;;4.07;2.60;;;18.80;98.00;;;;;;4991661;28;20452;-62
2023/07/01 06:08:43;;;;;;;4.13;2.67;;;18.80;98.00;;;;;;4992933;28;21029;-62
2023/07/01 06:11:10;;;;;;;3.67;2.37;;;18.80;98.00;;;;;;4990361;28;20488;-63
2023/07/01 06:13:38;;;;;;;6.90;2.77;;;18.90;98.00;;;;;;4992925;28;20456;-63
2023/07/01 06:16:06;;;;;;;3.53;2.50;;;19.00;98.00;;;;;;4992443;28;20470;-63
2023/07/01 06:18:34;;;;;;;3.87;2.70;;;19.00;98.00;;;;;;4992734;28;20492;-63
2023/07/01 06:21:03;;;;;;;5.00;2.67;;;19.00;98.00;;;;;;4992738;28;20468;-63
2023/07/01 06:23:31;;;;;;;3.80;2.80;;;19.10;98.00;;;;;;4992714;28;20536;-63
2023/07/01 06:25:58;;;;;;;4.10;2.60;;;19.20;98.00;;;;;;4992862;28;20543;-63
2023/07/01 06:28:25;;;;;;;5.30;2.93;;;19.30;98.00;;;;;;4992614;28;20456;-63
2023/07/01 06:30:54;;;;;;;4.10;2.70;;;19.40;98.00;;;;;;4992224;28;20856;-63
2023/07/01 06:33:21;;;;;;;4.60;2.90;;;19.50;98.00;;;;;;4992715;28;20970;-64
2023/07/01 06:35:59;;;;;;;5.33;2.90;;;19.50;98.00;;;;;;4992329;28;20452;-63
2023/07/01 06:38:26;;;;;;;4.23;2.73;;;19.50;98.00;;;;;;4992430;28;20484;-63
2023/07/01 06:40:53;;;;;;;3.77;2.53;;;19.50;98.00;;;;;;4992401;28;20448;-63
2023/07/01 06:43:20;;;;;;;4.13;2.67;;;19.60;98.00;;;;;;4992492;28;20902;-63
2023/07/01 06:45:48;;;;;;;6.30;2.90;;;19.70;98.00;;;;;;4992228;28;20828;-63
2023/07/01 06:48:15;;;;;;;4.50;2.80;;;19.70;98.00;;;;;;4992139;28;20456;-65
2023/07/01 06:50:43;;;;;;;4.00;2.50;;;19.80;98.00;;;;;;4991799;28;20468;-64
2023/07/01 06:53:11;;;;;;;6.87;2.97;;;19.90;98.00;;;;;;4992137;28;20460;-64
2023/07/01 06:55:38;;;;;;;4.13;2.60;;;19.80;98.00;;;;;;4992478;28;20456;-64
2023/07/01 06:58:05;;;;;;;3.50;2.33;;;19.90;98.00;;;;;;4991047;28;20892;-64
2023/07/01 07:00:33;;;;;;;4.47;2.80;;;19.90;98.00;;;;;;4991893;28;20475;-64
2023/07/01 07:03:03;;;;;;;4.37;2.70;;;19.90;98.00;;;;;;4992049;28;20476;-64
2023/07/01 07:05:32;;;;;;;3.10;2.50;;;19.90;98.00;;;;;;4989810;28;20460;-64
2023/07/01 07:08:00;;;;;;;4.30;2.77;;;20.00;98.00;;;;;;4992199;28;20456;-63
2023/07/01 07:10:28;;;;;;;5.53;3.03;;;20.00;98.00;;;;;;4991564;28;20461;-63
2023/07/01 07:12:55;;;;;;;6.53;3.03;;;20.10;98.00;;;;;;4991177;28;20461;-64
2023/07/01 07:15:28;;;;;;;4.43;3.10;;;20.20;98.00;;;;;;4992713;28;20464;-63
2023/07/01 07:18:01;;;;;;;4.20;2.90;;;20.40;98.00;;;;;;4992122;28;21014;-63
2023/07/01 07:20:31;;;;;;;6.30;3.10;;;20.40;98.00;;;;;;4992274;28;20551;-64
2023/07/01 07:22:58;;;;;;;6.17;3.03;;;20.40;98.00;;;;;;4990987;28;20452;-64
2023/07/01 07:25:26;;;;;;;4.07;2.60;;;20.50;98.00;;;;;;4991855;28;20460;-64
2023/07/01 07:27:54;;;;;;;4.10;2.70;;;20.70;98.00;;;;;;4991816;28;20524;-63
2023/07/01 07:30:21;;;;;;;5.40;2.90;;;20.70;98.00;;;;;;4990512;28;20479;-64
2023/07/01 07:32:48;;;;;;;4.07;2.30;;;20.90;98.00;;;;;;4991705;28;20518;-64
2023/07/01 07:35:15;;;;;;;3.80;2.70;;;20.90;98.00;;;;;;4990479;28;20463;-63
2023/07/01 07:37:43;;;;;;;4.50;3.00;;;21.10;98.00;;;;;;4991473;28;20891;-64
2023/07/01 07:40:11;;;;;;;3.37;2.50;;;21.00;98.00;;;;;;4992094;28;20459;-64
2023/07/01 07:42:38;;;;;;;6.43;3.43;;;21.00;98.00;;;;;;4992334;28;20475;-63
2023/07/01 07:45:08;;;;;;;3.90;2.50;;;21.10;98.00;;;;;;4990514;28;20464;-64
2023/07/01 07:47:35;;;;;;;4.10;2.60;;;21.10;98.00;;;;;;4991838;28;20452;-63
2023/07/01 07:50:03;;;;;;;5.10;2.70;;;21.20;98.00;;;;;;4992098;28;20958;-65
2023/07/01 07:52:30;;;;;;;4.40;2.50;;;21.30;98.00;;;;;;4991988;28;20548;-63
2023/07/01 07:54:57;;;;;;;4.90;2.70;;;21.40;98.00;;;;;;4974959;28;20792;-65
2023/07/01 07:57:24;;;;;;;3.97;2.53;;;21.40;98.00;;;;;;4992229;28;20464;-65
2023/07/01 07:59:51;;;;;;;3.50;2.47;;;21.50;98.00;;;;;;4992162;28;20605;-65
2023/07/01 08:02:19;;;;;;;7.13;2.63;;;21.50;98.00;;;;;;4992042;28;20907;-67
2023/07/01 08:04:46;;;;;;;4.20;2.80;;;21.60;98.00;;;;;;4991884;28;20514;-65
2023/07/01 08:07:14;;;;;;;3.37;2.60;;;21.60;98.00;;;;;;4992088;28;20530;-65
2023/07/01 08:09:44;;;;;;;4.50;2.60;;;21.70;98.00;;;;;;4992170;28;21195;-65
2023/07/01 08:12:12;;;;;;;5.53;2.70;;;21.90;98.00;;;;;;4992126;28;20471;-65
2023/07/01 08:14:39;;;;;;;3.27;2.30;;;22.00;98.00;;;;;;4990936;28;20455;-65
2023/07/01 08:17:06;;;;;;;3.33;2.47;;;22.00;98.00;;;;;;4993915;28;20934;-65
2023/07/01 08:19:35;;;;;;;3.60;2.70;;;22.10;98.00;;;;;;4995834;28;20487;-66
2023/07/01 08:22:02;;;;;;;3.43;2.63;;;22.30;98.00;;;;;;4995804;28;20456;-65
2023/07/01 08:24:29;;;;;;;4.40;2.87;;;22.30;98.00;;;;;;4995804;28;20970;-65
2023/07/01 08:26:56;;;;;;;5.53;3.03;;;22.40;98.00;;;;;;4995734;28;20460;-65
2023/07/01 08:29:24;;;;;;;3.87;2.17;;;22.40;98.00;;;;;;4995554;28;20984;-65
2023/07/01 08:31:51;;;;;;;3.60;2.70;;;22.50;98.00;;;;;;4995506;28;20834;-65
2023/07/01 08:34:18;;;;;;;3.57;2.30;;;22.60;97.00;;;;;;4995308;28;20639;-65
2023/07/01 08:36:48;;;;;;;4.20;2.60;;;22.70;97.70;;;;;;4995495;28;20460;-65
2023/07/01 08:39:16;;;;;;;3.83;2.57;;;22.80;96.50;;;;;;4994188;28;20523;-65
2023/07/01 08:41:51;;;;;;;4.50;2.80;;;22.80;96.70;;;;;;4995356;28;20452;-65
2023/07/01 08:44:20;;;;;;;4.17;2.70;;;22.80;96.50;;;;;;4995339;28;20558;-65
2023/07/01 08:46:48;;;;;;;6.80;2.40;;;22.90;96.50;;;;;;4993945;28;21085;-65
2023/07/01 08:49:19;;;;;;;5.23;2.70;;;23.10;95.10;;;;;;4995231;28;20994;-65
2023/07/01 08:51:51;;;;;;;3.83;2.47;;;23.00;95.50;;;;;;4994050;28;20460;-65
2023/07/01 08:54:21;;;;;;;6.63;3.10;;;23.10;94.00;;;;;;4995328;28;20478;-65
2023/07/01 08:56:49;;;;;;;4.73;2.87;;;23.10;95.00;;;;;;4994922;28;20460;-65
2023/07/01 08:59:16;;;;;;;11.63;2.97;;;23.30;95.20;;;;;;4994844;28;20583;-65
2023/07/01 09:01:44;;;;;;;4.30;3.17;;;23.40;95.20;;;;;;4994947;28;20471;-65
2023/07/01 09:04:11;;;;;;;4.10;2.80;;;23.50;94.20;;;;;;4995060;28;20460;-64
2023/07/01 09:06:38;;;;;;;3.37;2.70;;;23.40;94.50;;;;;;4994808;28;20475;-65
2023/07/01 09:09:07;;;;;;;5.07;2.67;;;23.50;95.30;;;;;;5204745;23;20492;-72
2023/07/01 09:11:35;;;;;;;8.60;2.90;;;23.40;96.30;;;;;;5002410;28;20452;-65
2023/07/01 09:14:03;;;;;;;7.60;2.60;;;23.10;96.50;;;;;;5006241;28;20543;-64
2023/07/01 09:16:34;;;;;;;4.13;2.63;;;23.00;97.10;;;;;;4993263;28;20934;-70
2023/07/01 09:19:06;;;;;;;3.57;2.50;;;23.00;96.10;;;;;;4992554;28;20484;-70
2023/07/01 09:21:33;;;;;;;5.00;2.60;;;22.80;96.20;;;;;;4993842;28;20483;-71
2023/07/01 09:24:00;;;;;;;4.63;3.00;;;22.90;96.90;;;;;;4993952;28;20448;-71
2023/07/01 09:26:31;;;;;;;3.87;2.43;;;23.10;96.20;;;;;;4993911;28;20492;-71
2023/07/01 09:28:59;;;;;;;4.00;2.80;;;23.40;96.30;;;;;;4993077;28;20566;-71
2023/07/01 09:31:29;;;;;;;4.70;2.73;;;23.60;93.20;;;;;;4993730;28;20460;-70
2023/07/01 09:34:02;;;;;;;3.50;2.60;;;23.70;93.40;;;;;;4993786;28;20555;-71
2023/07/01 09:36:31;;;;;;;4.50;2.80;;;23.90;93.60;;;;;;4993515;28;20469;-70
2023/07/01 09:38:59;;;;;;;4.27;3.00;;;24.10;92.20;;;;;;4993504;28;20499;-70
2023/07/01 09:41:27;;;;;;;3.83;2.80;;;24.40;91.10;;;;;;4993134;28;20467;-72
2023/07/01 09:43:57;;;;;;;3.83;2.70;;;24.70;90.40;;;;;;4993825;28;20966;-71
2023/07/01 09:46:26;;;;;;;3.10;2.50;;;25.00;89.80;;;;;;4993362;28;20510;-70
2023/07/01 09:48:54;;;;;;;3.27;2.53;;;25.10;89.10;;;;;;4992895;28;20551;-70
2023/07/01 09:51:24;;;;;;;3.87;2.90;;;25.30;86.90;;;;;;4992979;28;20456;-71
2023/07/01 09:53:53;;;;;;;7.63;2.40;;;25.00;86.20;;;;;;4994120;28;20445;-71
2023/07/01 09:56:21;;;;;;;3.23;2.53;;;24.70;87.90;;;;;;4992567;28;20453;-72
2023/07/01 09:58:50;;;;;;;3.70;2.60;;;24.90;86.80;;;;;;4993351;28;20978;-72
2023/07/01 10:01:19;;;;;;;3.17;2.60;;;24.80;87.50;;;;;;4992950;28;20464;-70
2023/07/01 10:03:46;;;;;;;3.00;2.50;;;25.00;86.50;;;;;;4993454;28;20464;-72
2023/07/01 10:06:14;;;;;;;4.60;2.70;;;25.10;86.80;;;;;;4991665;28;20487;-72
2023/07/01 10:08:43;;;;;;;3.73;2.50;;;25.10;86.30;;;;;;4993117;28;20461;-72
2023/07/01 10:11:15;;;;;;;3.93;2.60;;;25.10;85.60;;;;;;4991813;28;20551;-72
2023/07/01 10:13:48;;;;;;;3.43;2.60;;;25.10;84.80;;;;;;4993203;28;20966;-72
2023/07/01 10:16:16;;;;;;;3.80;2.60;;;25.40;85.90;;;;;;4997181;28;20951;-72
2023/07/01 10:18:46;;;;;;;3.90;2.70;;;25.50;84.60;;;;;;5012270;28;20483;-70
2023/07/01 10:21:31;;;;;;;4.20;2.60;;;25.40;84.30;;;;;;5011651;28;20475;-71
2023/07/01 10:24:00;;;;;;;2.90;2.30;;;25.50;82.30;;;;;;5012449;28;20463;-70
2023/07/01 10:26:39;;;;;;;2.90;2.23;;;25.50;81.20;;;;;;5012012;28;20522;-72
2023/07/01 10:29:40;;;;;;;2.60;2.30;;;25.30;81.00;;;;;;5012226;28;20459;-71
2023/07/01 10:32:30;;;;;;;5.13;2.37;;;25.00;80.90;;;;;;5012005;28;20455;-71
2023/07/01 10:35:21;;;;;;;2.77;2.30;;;25.20;81.50;;;;;;5012160;28;20546;-72
2023/07/01 10:38:31;;;;;;;2.80;2.33;;;24.90;80.60;;;;;;5010410;28;20451;-70
2023/07/01 10:40:59;;;;;;;3.30;2.47;;;25.00;81.50;;;;;;4976701;28;20502;-70
2023/07/01 10:43:29;;;;;;;2.80;2.07;;;24.90;81.30;;;;;;5010816;28;20447;-72
2023/07/01 10:46:22;;;;;;;2.63;2.20;;;25.00;82.80;;;;;;5011953;28;20462;-71
2023/07/01 10:49:07;;;;;;;3.20;2.37;;;25.30;81.80;;;;;;5011994;28;20456;-71
2023/07/01 10:52:16;;;;;;;4.83;2.17;;;25.40;82.20;;;;;;5011845;28;20949;-71
2023/07/01 10:54:45;;;;;;;2.90;2.00;;;25.60;80.60;;;;;;5012219;28;20916;-70
2023/07/01 10:57:14;;;;;;;6.20;2.50;;;25.70;79.90;;;;;;5012031;28;20854;-71
2023/07/01 10:59:41;;;;;;;7.33;2.47;;;25.90;79.80;;;;;;5011752;28;20499;-71
2023/07/01 11:02:10;;;;;;;3.23;2.50;;;25.90;79.50;;;;;;5011852;28;20451;-68
2023/07/01 11:05:05;;;;;;;3.57;2.50;;;26.00;79.30;;;;;;5010869;28;20518;-68
2023/07/01 11:07:44;;;;;;;4.50;2.43;;;25.50;78.10;;;;;;5011843;28;20591;-68
2023/07/01 11:10:11;;;;;;;2.73;2.17;;;25.20;77.20;;;;;;5011538;28;20477;-67
2023/07/01 11:12:39;;;;;;;2.67;2.10;;;25.00;79.30;;;;;;5011462;28;20479;-68
2023/07/01 11:15:07;;;;;;;3.60;2.20;;;25.10;77.50;;;;;;5011653;28;20455;-68
2023/07/01 11:17:34;;;;;;;2.87;2.03;;;25.10;79.30;;;;;;5011516;28;20482;-67
2023/07/01 11:20:01;;;;;;;6.90;2.60;;;25.10;78.50;;;;;;5011645;28;20582;-67
2023/07/01 11:22:28;;;;;;;3.63;2.50;;;25.50;79.20;;;;;;5011336;28;20513;-68
2023/07/01 11:25:04;;;;;;;5.43;2.50;;;25.70;78.30;;;;;;5011382;28;20478;-70
2023/07/01 11:27:31;;;;;;;2.87;2.20;;;26.00;77.20;;;;;;5011213;28;20846;-68
2023/07/01 11:29:58;;;;;;;4.00;2.60;;;26.10;78.20;;;;;;5011444;28;20452;-66
2023/07/01 11:32:25;;;;;;;3.40;2.47;;;26.00;78.50;;;;;;5011584;28;20576;-63
2023/07/01 11:34:58;;;;;;;3.80;2.50;;;26.00;75.30;;;;;;5011377;28;20460;-66
2023/07/01 11:37:27;;;;;;;5.47;2.40;;;26.30;76.30;;;;;;5011283;28;20494;-63
2023/07/01 11:39:54;;;;;;;6.50;2.70;;;26.50;75.20;;;;;;5011322;28;20570;-63
2023/07/01 11:42:25;;;;;;;7.40;2.90;;;26.80;74.10;;;;;;5011409;28;20444;-67
2023/07/01 11:44:52;;;;;;;3.90;2.73;;;27.00;73.10;;;;;;5011401;28;20452;-68
2023/07/01 11:47:19;;;;;;;5.07;2.70;;;26.80;75.00;;;;;;5011188;28;20879;-67
2023/07/01 11:49:47;;;;;;;4.20;2.77;;;26.70;73.20;;;;;;5011634;28;20554;-67
2023/07/01 11:52:24;;;;;;;3.57;2.60;;;26.80;72.30;;;;;;5013604;28;20878;-67
2023/07/01 11:54:54;;;;;;;3.60;2.60;;;27.10;72.90;;;;;;5015462;28;20482;-67
2023/07/01 11:57:23;;;;;;;3.80;2.57;;;27.20;70.20;;;;;;5014987;28;20459;-67
2023/07/01 11:59:53;;;;;;;4.87;3.07;;;27.30;69.20;;;;;;5008732;28;20492;-66
2023/07/01 12:02:27;;;;;;;4.00;2.67;;;27.40;69.90;;;;;;5008476;28;20900;-66
2023/07/01 12:04:54;;;;;;;4.67;2.80;;;27.50;69.40;;;;;;4999265;28;20514;-66
2023/07/01 12:07:21;;;;;;;5.03;3.20;;;27.40;69.40;;;;;;5014848;28;20455;-68
2023/07/01 12:09:51;;;;;;;5.77;3.30;;;27.20;68.20;;;;;;5014684;28;20478;-66
2023/07/01 12:12:36;;;;;;;5.47;3.20;;;27.00;69.50;;;;;;5014723;28;20574;-66
2023/07/01 12:15:11;;;;;;;7.53;3.30;;;26.60;69.90;;;;;;5014874;28;20739;-66
2023/07/01 12:17:38;;;;;;;6.03;3.23;;;26.70;72.30;;;;;;5014589;28;20459;-67
2023/07/01 12:20:09;;;;;;;4.40;2.97;;;26.70;72.30;;;;;;5014477;28;20510;-68
2023/07/01 12:22:37;;;;;;;4.60;2.73;;;26.80;72.80;;;;;;5014765;28;20586;-66
2023/07/01 12:25:05;;;;;;;4.80;2.90;;;27.00;74.00;;;;;;5013339;28;20891;-66
2023/07/01 12:27:33;;;;;;;4.50;2.87;;;26.80;73.40;;;;;;5013414;28;20525;-67
2023/07/01 12:30:01;;;;;;;6.33;2.60;;;26.60;75.30;;;;;;5013313;28;20513;-71
2023/07/01 12:32:30;;;;;;;6.07;2.90;;;26.40;74.60;;;;;;5014439;28;20455;-71
2023/07/01 12:34:58;;;;;;;4.20;2.70;;;26.40;75.20;;;;;;5014540;28;20458;-71
2023/07/01 12:37:33;;;;;;;6.20;3.00;;;26.30;74.70;;;;;;5013997;28;20455;-71
2023/07/01 12:40:03;;;;;;;3.40;2.60;;;26.50;76.80;;;;;;5013190;28;20479;-71
2023/07/01 12:42:31;;;;;;;5.10;2.97;;;26.60;75.80;;;;;;5013947;28;20459;-71
2023/07/01 12:44:58;;;;;;;4.70;2.80;;;26.30;76.40;;;;;;5014411;28;20463;-71
2023/07/01 12:47:25;;;;;;;4.90;2.80;;;26.20;76.30;;;;;;5014449;28;20467;-71
2023/07/01 12:49:53;;;;;;;4.63;2.67;;;26.20;77.50;;;;;;5014346;28;20816;-71
2023/07/01 12:52:21;;;;;;;4.40;2.73;;;26.10;77.50;;;;;;5014043;28;20455;-71
2023/07/01 12:54:48;;;;;;;4.30;2.90;;;26.00;77.30;;;;;;5014116;28;20447;-70
2023/07/01 12:57:15;;;;;;;5.77;2.93;;;26.00;78.10;;;;;;5013969;28;20877;-71